Time;durP1;ratioP1;P1;durP2;ratioP2;P2;SDS_P1;SDS_P2;PMS_P1;PMS_P2;Temp;Humidity;BMP_temperature;BMP_pressure;BME280_temperature;BME280_humidity;BME280_pressure;Samples;Min_cycle;Max_cycle;Signal;HPM_P1;HPM_P2
2023/12/13 00:01:45;;;;;;;;;;;;;;;;;;5003810;28;19976;-45
2023/12/13 00:04:11;;;;;;;;;;;;;;;;;;4998460;28;20470;-46
2023/12/13 00:06:37;;;;;;;;;;;;;;;;;;4995401;28;19988;-45
2023/12/13 00:09:03;;;;;;;;;;;;;;;;;;5012276;28;19928;-46
2023/12/13 00:11:29;;;;;;;;;;;;;;;;;;5012250;28;19963;-46
2023/12/13 00:13:55;;;;;;;;;;;;;;;;;;5013314;28;19930;-46
2023/12/13 00:16:21;;;;;;;;;;;;;;;;;;5008153;28;19920;-46
2023/12/13 00:18:47;;;;;;;;;;;;;;;;;;4995856;28;19914;-45
2023/12/13 00:21:15;;;;;;;;;;;;;;;;;;4995782;28;19945;-46
2023/12/13 00:23:42;;;;;;;;;;;;;;;;;;5011964;28;19913;-46
2023/12/13 00:26:08;;;;;;;;;;;;;;;;;;5005983;28;19914;-46
2023/12/13 00:28:34;;;;;;;;;;;;;;;;;;4993864;28;20271;-45
2023/12/13 00:31:00;;;;;;;;;;;;;;;;;;4997266;28;19992;-45
2023/12/13 00:33:26;;;;;;;;;;;;;;;;;;4993630;28;20329;-47
2023/12/13 00:35:52;;;;;;;;;;;;;;;;;;4993428;28;20298;-46
2023/12/13 00:38:18;;;;;;;;;;;;;;;;;;5006147;28;20378;-45
2023/12/13 00:40:45;;;;;;;;;;;;;;;;;;4999171;28;19925;-45
2023/12/13 00:43:11;;;;;;;;;;;;;;;;;;4993404;28;19914;-46
2023/12/13 00:45:37;;;;;;;;;;;;;;;;;;4996162;28;19920;-46
2023/12/13 00:48:03;;;;;;;;;;;;;;;;;;5001064;28;19913;-45
2023/12/13 00:50:30;;;;;;;;;;;;;;;;;;5005915;28;19967;-46
2023/12/13 00:52:56;;;;;;;;;;;;;;;;;;4993168;28;19997;-47
2023/12/13 00:55:22;;;;;;;;;;;;;;;;;;5008171;28;19914;-46
2023/12/13 00:57:48;;;;;;;;;;;;;;;;;;5003899;28;19914;-46
2023/12/13 01:00:14;;;;;;;;;;;;;;;;;;4994196;28;19918;-45
2023/12/13 01:02:40;;;;;;;;;;;;;;;;;;5012211;28;19920;-45
2023/12/13 01:05:07;;;;;;;;;;;;;;;;;;5008821;28;19940;-45
2023/12/13 01:07:33;;;;;;;;;;;;;;;;;;5006166;28;19913;-46
2023/12/13 01:09:59;;;;;;;;;;;;;;;;;;4993028;28;19921;-46
2023/12/13 01:12:25;;;;;;;;;;;;;;;;;;4992875;28;19921;-45
2023/12/13 01:14:51;;;;;;;;;;;;;;;;;;4993244;28;19914;-45
2023/12/13 01:17:17;;;;;;;;;;;;;;;;;;5006512;28;19913;-46
2023/12/13 01:19:43;;;;;;;;;;;;;;;;;;4993874;28;19925;-45
2023/12/13 01:22:10;;;;;;;;;;;;;;;;;;4992727;28;20016;-46
2023/12/13 01:24:36;;;;;;;;;;;;;;;;;;5006820;28;20413;-46
2023/12/13 01:27:02;;;;;;;;;;;;;;;;;;4995106;28;19913;-46
2023/12/13 01:29:28;;;;;;;;;;;;;;;;;;4995614;28;19914;-45
2023/12/13 01:31:54;;;;;;;;;;;;;;;;;;5004151;28;20385;-46
2023/12/13 01:34:20;;;;;;;;;;;;;;;;;;5010527;28;20413;-45
2023/12/13 01:36:46;;;;;;;;;;;;;;;;;;5009803;28;20390;-46
2023/12/13 01:39:12;;;;;;;;;;;;;;;;;;4993376;28;19972;-46
2023/12/13 01:41:38;;;;;;;;;;;;;;;;;;4991416;28;20268;-45
2023/12/13 01:44:05;;;;;;;;;;;;;;;;;;5001119;28;20290;-46
2023/12/13 01:46:32;;;;;;;;;;;;;;;;;;5000309;28;19918;-46
2023/12/13 01:48:58;;;;;;;;;;;;;;;;;;4993762;28;19914;-45
2023/12/13 01:51:24;;;;;;;;;;;;;;;;;;4993619;28;19921;-45
2023/12/13 01:53:50;;;;;;;;;;;;;;;;;;4999493;28;19918;-45
2023/12/13 01:56:16;;;;;;;;;;;;;;;;;;4992521;28;19944;-45
2023/12/13 01:58:42;;;;;;;;;;;;;;;;;;5004815;28;19920;-46
2023/12/13 02:01:08;;;;;;;;;;;;;;;;;;5001302;28;19913;-45
2023/12/13 02:03:37;;;;;;;;;;;;;;;;;;5002152;28;19921;-46
2023/12/13 02:06:03;;;;;;;;;;;;;;;;;;5011520;28;20420;-45
2023/12/13 02:08:30;;;;;;;;;;;;;;;;;;5000278;28;20370;-47
2023/12/13 02:10:57;;;;;;;;;;;;;;;;;;5010795;28;19913;-45
2023/12/13 02:13:23;;;;;;;;;;;;;;;;;;5000169;28;19941;-46
2023/12/13 02:15:50;;;;;;;;;;;;;;;;;;4990669;28;19924;-45
2023/12/13 02:18:16;;;;;;;;;;;;;;;;;;4992501;28;19914;-45
2023/12/13 02:20:42;;;;;;;;;;;;;;;;;;4992336;28;19960;-46
2023/12/13 02:23:08;;;;;;;;;;;;;;;;;;4992305;28;19914;-46
2023/12/13 02:25:34;;;;;;;;;;;;;;;;;;5003260;28;19914;-46
2023/12/13 02:28:00;;;;;;;;;;;;;;;;;;5010801;28;20008;-45
2023/12/13 02:30:26;;;;;;;;;;;;;;;;;;5011694;28;19918;-46
2023/12/13 02:32:52;;;;;;;;;;;;;;;;;;5008929;28;19920;-46
2023/12/13 02:35:18;;;;;;;;;;;;;;;;;;5001843;28;19914;-46
2023/12/13 02:37:48;;;;;;;;;;;;;;;;;;4992346;28;19957;-45
2023/12/13 02:40:14;;;;;;;;;;;;;;;;;;4992022;28;19925;-45
2023/12/13 02:42:40;;;;;;;;;;;;;;;;;;4990799;28;19918;-45
2023/12/13 02:45:06;;;;;;;;;;;;;;;;;;5001927;28;19972;-45
2023/12/13 02:47:32;;;;;;;;;;;;;;;;;;5012811;28;19936;-45
2023/12/13 02:49:58;;;;;;;;;;;;;;;;;;5015161;28;19945;-45
2023/12/13 02:52:24;;;;;;;;;;;;;;;;;;5014989;28;19914;-46
2023/12/13 02:54:50;;;;;;;;;;;;;;;;;;5013989;28;19914;-45
2023/12/13 02:57:16;;;;;;;;;;;;;;;;;;5015032;28;19963;-45
2023/12/13 02:59:43;;;;;;;;;;;;;;;;;;5013604;28;19932;-45
2023/12/13 03:02:09;;;;;;;;;;;;;;;;;;5003398;28;19914;-45
2023/12/13 03:04:35;;;;;;;;;;;;;;;;;;5013268;28;20290;-45
2023/12/13 03:07:01;;;;;;;;;;;;;;;;;;5014984;28;20266;-45
2023/12/13 03:09:27;;;;;;;;;;;;;;;;;;5014870;28;19921;-45
2023/12/13 03:11:53;;;;;;;;;;;;;;;;;;5013273;28;19916;-46
2023/12/13 03:14:19;;;;;;;;;;;;;;;;;;5002039;28;19918;-45
2023/12/13 03:16:45;;;;;;;;;;;;;;;;;;5008800;28;19913;-46
2023/12/13 03:19:11;;;;;;;;;;;;;;;;;;5005261;28;19924;-45
2023/12/13 03:21:37;;;;;;;;;;;;;;;;;;5010055;28;20000;-45
2023/12/13 03:24:04;;;;;;;;;;;;;;;;;;5012397;28;19914;-45
2023/12/13 03:26:30;;;;;;;;;;;;;;;;;;4993730;28;19918;-46
2023/12/13 03:28:56;;;;;;;;;;;;;;;;;;4994980;28;19913;-46
2023/12/13 03:31:22;;;;;;;;;;;;;;;;;;4977349;28;19917;-45
2023/12/13 03:33:48;;;;;;;;;;;;;;;;;;4994705;28;19914;-45
2023/12/13 03:36:15;;;;;;;;;;;;;;;;;;4996782;28;19959;-45
2023/12/13 03:38:41;;;;;;;;;;;;;;;;;;5014389;28;19953;-46
2023/12/13 03:41:07;;;;;;;;;;;;;;;;;;5012977;28;19917;-46
2023/12/13 03:43:33;;;;;;;;;;;;;;;;;;5014107;28;19921;-46
2023/12/13 03:45:59;;;;;;;;;;;;;;;;;;4995760;28;20302;-46
2023/12/13 03:48:25;;;;;;;;;;;;;;;;;;5013143;28;20294;-46
2023/12/13 03:50:51;;;;;;;;;;;;;;;;;;5012369;28;19928;-46
2023/12/13 03:53:17;;;;;;;;;;;;;;;;;;5010868;28;19913;-46
2023/12/13 03:55:43;;;;;;;;;;;;;;;;;;5012391;28;19949;-46
2023/12/13 03:58:09;;;;;;;;;;;;;;;;;;5012339;28;19921;-45
2023/12/13 04:00:35;;;;;;;;;;;;;;;;;;5011344;28;19917;-46
2023/12/13 04:03:01;;;;;;;;;;;;;;;;;;5010850;28;20416;-45
2023/12/13 04:05:28;;;;;;;;;;;;;;;;;;4998205;28;20378;-45
2023/12/13 04:07:54;;;;;;;;;;;;;;;;;;4994554;28;19936;-46
2023/12/13 04:10:20;;;;;;;;;;;;;;;;;;4996676;28;19922;-45
2023/12/13 04:12:46;;;;;;;;;;;;;;;;;;4996929;28;19913;-45
2023/12/13 04:15:12;;;;;;;;;;;;;;;;;;4995970;28;19914;-45
2023/12/13 04:17:38;;;;;;;;;;;;;;;;;;5013401;28;19919;-46
2023/12/13 04:20:04;;;;;;;;;;;;;;;;;;5002021;28;20402;-45
2023/12/13 04:22:30;;;;;;;;;;;;;;;;;;4993536;28;20012;-45
2023/12/13 04:24:56;;;;;;;;;;;;;;;;;;4992623;28;19917;-46
2023/12/13 04:27:23;;;;;;;;;;;;;;;;;;4993815;28;19921;-45
2023/12/13 04:29:49;;;;;;;;;;;;;;;;;;4976685;28;19936;-45
2023/12/13 04:32:15;;;;;;;;;;;;;;;;;;5009915;28;19913;-46
2023/12/13 04:34:41;;;;;;;;;;;;;;;;;;5001993;28;19914;-45
2023/12/13 04:37:07;;;;;;;;;;;;;;;;;;4993633;28;20016;-45
2023/12/13 04:39:33;;;;;;;;;;;;;;;;;;4996170;28;20390;-46
2023/12/13 04:41:59;;;;;;;;;;;;;;;;;;5013506;28;20351;-47
2023/12/13 04:44:27;;;;;;;;;;;;;;;;;;5006048;28;19929;-47
2023/12/13 04:46:53;;;;;;;;;;;;;;;;;;5002269;28;19917;-46
2023/12/13 04:49:20;;;;;;;;;;;;;;;;;;4997351;28;20152;-46
2023/12/13 04:51:46;;;;;;;;;;;;;;;;;;4992045;28;19913;-45
2023/12/13 04:54:12;;;;;;;;;;;;;;;;;;4999337;28;19968;-45
2023/12/13 04:56:38;;;;;;;;;;;;;;;;;;5002024;28;19913;-45
2023/12/13 04:59:04;;;;;;;;;;;;;;;;;;4993263;28;19988;-46
2023/12/13 05:01:30;;;;;;;;;;;;;;;;;;4991605;28;19917;-46
2023/12/13 05:03:57;;;;;;;;;;;;;;;;;;4992548;28;19921;-46
2023/12/13 05:06:23;;;;;;;;;;;;;;;;;;4993299;28;20286;-46
2023/12/13 05:08:49;;;;;;;;;;;;;;;;;;4992113;28;19913;-45
2023/12/13 05:11:15;;;;;;;;;;;;;;;;;;4992975;28;19921;-46
2023/12/13 05:13:41;;;;;;;;;;;;;;;;;;4993122;28;19921;-46
2023/12/13 05:16:07;;;;;;;;;;;;;;;;;;4991974;28;19956;-45
2023/12/13 05:18:33;;;;;;;;;;;;;;;;;;4993044;28;19914;-46
2023/12/13 05:20:59;;;;;;;;;;;;;;;;;;4992887;28;20537;-46
2023/12/13 05:23:26;;;;;;;;;;;;;;;;;;4992929;28;19914;-46
2023/12/13 05:25:52;;;;;;;;;;;;;;;;;;4993138;28;19921;-46
2023/12/13 05:28:18;;;;;;;;;;;;;;;;;;4993150;28;19921;-46
2023/12/13 05:30:44;;;;;;;;;;;;;;;;;;4992802;28;19918;-46
2023/12/13 05:33:11;;;;;;;;;;;;;;;;;;4992893;28;19953;-46
2023/12/13 05:35:37;;;;;;;;;;;;;;;;;;4992940;28;19914;-46
2023/12/13 05:38:03;;;;;;;;;;;;;;;;;;4993141;28;19984;-47
2023/12/13 05:40:29;;;;;;;;;;;;;;;;;;4992580;28;19917;-46
2023/12/13 05:42:55;;;;;;;;;;;;;;;;;;4992700;28;19920;-46
2023/12/13 05:45:21;;;;;;;;;;;;;;;;;;4992684;28;19957;-45
2023/12/13 05:47:47;;;;;;;;;;;;;;;;;;4975278;28;19914;-48
2023/12/13 05:50:13;;;;;;;;;;;;;;;;;;4992532;28;20429;-46
2023/12/13 05:52:39;;;;;;;;;;;;;;;;;;4992635;28;19921;-49
2023/12/13 05:55:05;;;;;;;;;;;;;;;;;;4992659;28;20382;-48
2023/12/13 05:57:31;;;;;;;;;;;;;;;;;;4992756;28;19999;-49
2023/12/13 05:59:57;;;;;;;;;;;;;;;;;;4992395;28;20439;-48
2023/12/13 06:02:24;;;;;;;;;;;;;;;;;;4992723;28;20374;-50
2023/12/13 06:04:50;;;;;;;;;;;;;;;;;;4991575;28;19924;-46
2023/12/13 06:07:16;;;;;;;;;;;;;;;;;;4992571;28;19914;-46
2023/12/13 06:09:42;;;;;;;;;;;;;;;;;;4992520;28;19914;-47
2023/12/13 06:12:08;;;;;;;;;;;;;;;;;;4992379;28;20397;-47
2023/12/13 06:14:34;;;;;;;;;;;;;;;;;;4992322;28;20389;-46
2023/12/13 06:17:00;;;;;;;;;;;;;;;;;;4992490;28;20386;-45
2023/12/13 06:19:29;;;;;;;;;;;;;;;;;;4992314;28;20341;-47
2023/12/13 06:21:55;;;;;;;;;;;;;;;;;;4992454;28;19920;-46
2023/12/13 06:24:22;;;;;;;;;;;;;;;;;;4994842;28;19921;-47
2023/12/13 06:26:48;;;;;;;;;;;;;;;;;;4996302;28;19957;-46
2023/12/13 06:29:14;;;;;;;;;;;;;;;;;;4996035;28;19914;-46
2023/12/13 06:31:40;;;;;;;;;;;;;;;;;;4995887;28;19924;-47
2023/12/13 06:34:06;;;;;;;;;;;;;;;;;;4995949;28;19921;-47
2023/12/13 06:36:32;;;;;;;;;;;;;;;;;;4995989;28;19941;-49
2023/12/13 06:39:03;;;;;;;;;;;;;;;;;;4995865;28;19914;-48
2023/12/13 06:41:29;;;;;;;;;;;;;;;;;;4995852;28;19913;-51
2023/12/13 06:43:56;;;;;;;;;;;;;;;;;;4995578;28;19933;-48
2023/12/13 06:46:23;;;;;;;;;;;;;;;;;;4995739;28;20362;-46
2023/12/13 06:48:49;;;;;;;;;;;;;;;;;;4995782;28;19910;-46
2023/12/13 06:51:15;;;;;;;;;;;;;;;;;;4995700;28;19914;-46
2023/12/13 06:53:41;;;;;;;;;;;;;;;;;;4995549;28;20286;-47
2023/12/13 06:56:07;;;;;;;;;;;;;;;;;;4994308;28;20465;-47
2023/12/13 06:58:34;;;;;;;;;;;;;;;;;;4995628;28;19909;-46
2023/12/13 07:01:01;;;;;;;;;;;;;;;;;;4995228;28;19922;-48
2023/12/13 07:03:27;;;;;;;;;;;;;;;;;;4995495;28;20301;-47
2023/12/13 07:05:53;;;;;;;;;;;;;;;;;;4995477;28;19920;-50
2023/12/13 07:08:19;;;;;;;;;;;;;;;;;;4994176;28;19914;-47
2023/12/13 07:10:45;;;;;;;;;;;;;;;;;;4995227;28;19914;-46
2023/12/13 07:13:11;;;;;;;;;;;;;;;;;;4995209;28;19964;-49
2023/12/13 07:15:37;;;;;;;;;;;;;;;;;;4977676;28;19953;-47
2023/12/13 07:18:03;;;;;;;;;;;;;;;;;;4995224;28;20517;-47
2023/12/13 07:20:30;;;;;;;;;;;;;;;;;;4993772;28;19918;-48
2023/12/13 07:22:56;;;;;;;;;;;;;;;;;;4995062;28;19917;-47
2023/12/13 07:25:22;;;;;;;;;;;;;;;;;;4995050;28;19914;-46
2023/12/13 07:27:48;;;;;;;;;;;;;;;;;;4995067;28;20009;-46
2023/12/13 07:30:15;;;;;;;;;;;;;;;;;;4994664;28;20386;-47
2023/12/13 07:32:41;;;;;;;;;;;;;;;;;;4994763;28;20378;-47
2023/12/13 07:35:07;;;;;;;;;;;;;;;;;;4994939;28;20375;-49
2023/12/13 07:37:35;;;;;;;;;;;;;;;;;;4994238;28;20290;-46
2023/12/13 07:40:01;;;;;;;;;;;;;;;;;;4993256;28;20020;-49
2023/12/13 07:42:27;;;;;;;;;;;;;;;;;;4994629;28;20438;-46
2023/12/13 07:44:53;;;;;;;;;;;;;;;;;;4994659;28;20271;-50
2023/12/13 07:47:20;;;;;;;;;;;;;;;;;;4994736;28;19910;-47
2023/12/13 07:49:46;;;;;;;;;;;;;;;;;;4993316;28;19952;-47
2023/12/13 07:52:12;;;;;;;;;;;;;;;;;;4994534;28;19988;-46
2023/12/13 07:54:38;;;;;;;;;;;;;;;;;;4994551;28;19914;-50
2023/12/13 07:57:04;;;;;;;;;;;;;;;;;;4993383;28;20282;-46
2023/12/13 07:59:30;;;;;;;;;;;;;;;;;;4994204;28;20413;-46
2023/12/13 08:01:56;;;;;;;;;;;;;;;;;;4994484;28;19933;-47
2023/12/13 08:04:22;;;;;;;;;;;;;;;;;;4993011;28;19921;-45
2023/12/13 08:06:48;;;;;;;;;;;;;;;;;;4994252;28;20025;-47
2023/12/13 08:09:15;;;;;;;;;;;;;;;;;;4994078;28;19921;-46
2023/12/13 08:11:43;;;;;;;;;;;;;;;;;;4994099;28;19920;-49
2023/12/13 08:14:09;;;;;;;;;;;;;;;;;;4976525;28;19914;-46
2023/12/13 08:16:35;;;;;;;;;;;;;;;;;;4994033;28;20012;-47
2023/12/13 08:19:01;;;;;;;;;;;;;;;;;;4994033;28;19914;-49
2023/12/13 08:21:27;;;;;;;;;;;;;;;;;;4993998;28;19937;-51
2023/12/13 08:23:53;;;;;;;;;;;;;;;;;;4993761;28;19933;-49
2023/12/13 08:26:20;;;;;;;;;;;;;;;;;;4993934;28;19968;-52
2023/12/13 08:28:46;;;;;;;;;;;;;;;;;;4993863;28;19917;-47
2023/12/13 08:31:12;;;;;;;;;;;;;;;;;;4993677;28;19917;-47
2023/12/13 08:33:38;;;;;;;;;;;;;;;;;;4993650;28;19913;-47
2023/12/13 08:36:04;;;;;;;;;;;;;;;;;;4993743;28;20005;-48
2023/12/13 08:38:30;;;;;;;;;;;;;;;;;;4993716;28;20412;-50
2023/12/13 08:40:56;;;;;;;;;;;;;;;;;;4992152;28;20001;-50
2023/12/13 08:43:22;;;;;;;;;;;;;;;;;;4992227;28;19914;-48
2023/12/13 08:45:48;;;;;;;;;;;;;;;;;;4993098;28;20333;-47
2023/12/13 08:48:15;;;;;;;;;;;;;;;;;;4993558;28;19914;-46
2023/12/13 08:50:41;;;;;;;;;;;;;;;;;;4993410;28;19914;-46
2023/12/13 08:53:07;;;;;;;;;;;;;;;;;;4993355;28;20294;-46
2023/12/13 08:55:33;;;;;;;;;;;;;;;;;;4993335;28;19996;-46
2023/12/13 08:58:00;;;;;;;;;;;;;;;;;;4992264;28;19920;-48
2023/12/13 09:00:26;;;;;;;;;;;;;;;;;;4993245;28;19914;-47
2023/12/13 09:02:52;;;;;;;;;;;;;;;;;;4991990;28;20510;-46
2023/12/13 09:05:18;;;;;;;;;;;;;;;;;;4976040;28;19917;-47
2023/12/13 09:07:44;;;;;;;;;;;;;;;;;;4993206;28;19913;-47
2023/12/13 09:10:11;;;;;;;;;;;;;;;;;;4993021;28;20399;-48
2023/12/13 09:12:38;;;;;;;;;;;;;;;;;;4993061;28;20330;-47
2023/12/13 09:15:06;;;;;;;;;;;;;;;;;;4993254;28;19910;-46
2023/12/13 09:17:33;;;;;;;;;;;;;;;;;;4993103;28;19968;-47
2023/12/13 09:19:59;;;;;;;;;;;;;;;;;;4991641;28;19921;-50
2023/12/13 09:22:25;;;;;;;;;;;;;;;;;;4992883;28;19967;-47
2023/12/13 09:24:51;;;;;;;;;;;;;;;;;;4992978;28;19914;-47
2023/12/13 09:27:17;;;;;;;;;;;;;;;;;;4992822;28;19974;-47
2023/12/13 09:29:43;;;;;;;;;;;;;;;;;;4992724;28;20398;-47
2023/12/13 09:32:09;;;;;;;;;;;;;;;;;;4992839;28;20331;-47
2023/12/13 09:34:35;;;;;;;;;;;;;;;;;;4993367;28;19910;-47
2023/12/13 09:37:01;;;;;;;;;;;;;;;;;;4992797;28;19914;-46
2023/12/13 09:39:27;;;;;;;;;;;;;;;;;;4992507;28;19914;-49
2023/12/13 09:41:54;;;;;;;;;;;;;;;;;;4991479;28;19917;-48
2023/12/13 09:44:20;;;;;;;;;;;;;;;;;;4992703;28;19910;-47
2023/12/13 09:46:46;;;;;;;;;;;;;;;;;;4992788;28;20310;-46
2023/12/13 09:49:12;;;;;;;;;;;;;;;;;;4992754;28;19965;-48
2023/12/13 09:51:38;;;;;;;;;;;;;;;;;;4992603;28;19913;-47
2023/12/13 09:54:04;;;;;;;;;;;;;;;;;;4992502;28;19937;-46
2023/12/13 09:56:30;;;;;;;;;;;;;;;;;;4992664;28;20401;-49
2023/12/13 09:58:56;;;;;;;;;;;;;;;;;;4994958;28;19917;-47
2023/12/13 10:01:22;;;;;;;;;;;;;;;;;;4995297;28;20004;-46
2023/12/13 10:03:48;;;;;;;;;;;;;;;;;;4996448;28;20351;-49
2023/12/13 10:06:14;;;;;;;;;;;;;;;;;;4996610;28;19924;-47
2023/12/13 10:08:40;;;;;;;;;;;;;;;;;;4996417;28;19921;-47
2023/12/13 10:11:06;;;;;;;;;;;;;;;;;;4996326;28;19913;-46
2023/12/13 10:13:34;;;;;;;;;;;;;;;;;;4996385;28;20001;-46
2023/12/13 10:16:00;;;;;;;;;;;;;;;;;;4996380;28;19918;-47
2023/12/13 10:18:26;;;;;;;;;;;;;;;;;;4996199;28;20009;-47
2023/12/13 10:20:52;;;;;;;;;;;;;;;;;;4996164;28;20001;-46
2023/12/13 10:23:18;;;;;;;;;;;;;;;;;;4996302;28;19910;-47
2023/12/13 10:25:44;;;;;;;;;;;;;;;;;;4994876;28;19914;-48
2023/12/13 10:28:11;;;;;;;;;;;;;;;;;;4996111;28;20004;-49
2023/12/13 10:30:37;;;;;;;;;;;;;;;;;;4995229;28;20053;-46
2023/12/13 10:33:04;;;;;;;;;;;;;;;;;;4995917;28;20022;-48
2023/12/13 10:35:30;;;;;;;;;;;;;;;;;;4994654;28;19921;-48
2023/12/13 10:37:56;;;;;;;;;;;;;;;;;;4995903;28;20286;-46
2023/12/13 10:40:22;;;;;;;;;;;;;;;;;;4995656;28;19964;-47
2023/12/13 10:42:48;;;;;;;;;;;;;;;;;;4995826;28;19910;-45
2023/12/13 10:45:15;;;;;;;;;;;;;;;;;;4994563;28;19918;-47
2023/12/13 10:47:41;;;;;;;;;;;;;;;;;;4994621;28;19916;-45
2023/12/13 10:50:07;;;;;;;;;;;;;;;;;;4995612;28;19997;-47
2023/12/13 10:52:33;;;;;;;;;;;;;;;;;;4994476;28;19910;-46
2023/12/13 10:54:59;;;;;;;;;;;;;;;;;;4994357;28;19913;-48
2023/12/13 10:57:25;;;;;;;;;;;;;;;;;;4996007;28;20252;-49
2023/12/13 10:59:51;;;;;;;;;;;;;;;;;;4995848;28;19965;-47
2023/12/13 11:02:18;;;;;;;;;;;;;;;;;;4995306;28;19980;-47
2023/12/13 11:04:44;;;;;;;;;;;;;;;;;;4995395;28;20387;-47
2023/12/13 11:07:11;;;;;;;;;;;;;;;;;;4994312;28;20295;-47
2023/12/13 11:09:37;;;;;;;;;;;;;;;;;;4994905;28;19925;-47
2023/12/13 11:12:03;;;;;;;;;;;;;;;;;;4994121;28;19933;-47
2023/12/13 11:14:29;;;;;;;;;;;;;;;;;;4993958;28;19968;-46
2023/12/13 11:16:57;;;;;;;;;;;;;;;;;;4995396;28;19910;-47
2023/12/13 11:19:25;;;;;;;;;;;;;;;;;;4993803;28;19939;-45
2023/12/13 11:21:51;;;;;;;;;;;;;;;;;;4995168;28;19913;-46
2023/12/13 11:24:20;;;;;;;;;;;;;;;;;;4995775;28;19913;-47
2023/12/13 11:26:49;;;;;;;;;;;;;;;;;;4991707;28;20329;-46
2023/12/13 11:29:15;;;;;;;;;;;;;;;;;;5016188;28;19929;-45
2023/12/13 11:31:46;;;;;;;;;;;;;;;;;;5015336;28;19918;-48
2023/12/13 11:34:12;;;;;;;;;;;;;;;;;;5009441;28;19952;-46
2023/12/13 11:36:39;;;;;;;;;;;;;;;;;;5027267;28;19913;-46
2023/12/13 11:39:07;;;;;;;;;;;;;;;;;;5024117;28;19918;-46
2023/12/13 11:41:33;;;;;;;;;;;;;;;;;;5009454;28;19918;-46
2023/12/13 11:43:59;;;;;;;;;;;;;;;;;;4995435;28;19925;-45
2023/12/13 11:46:25;;;;;;;;;;;;;;;;;;5002859;28;19917;-46
2023/12/13 11:48:52;;;;;;;;;;;;;;;;;;5010056;28;20052;-47
2023/12/13 11:51:18;;;;;;;;;;;;;;;;;;4999603;28;19921;-47
2023/12/13 11:53:44;;;;;;;;;;;;;;;;;;4995790;28;19991;-47
2023/12/13 11:56:12;;;;;;;;;;;;;;;;;;4993956;28;20374;-47
2023/12/13 11:58:39;;;;;;;;;;;;;;;;;;4991648;28;19918;-47
2023/12/13 12:01:06;;;;;;;;;;;;;;;;;;5001391;28;19917;-47
2023/12/13 12:03:33;;;;;;;;;;;;;;;;;;5010032;28;19917;-48
2023/12/13 12:05:59;;;;;;;;;;;;;;;;;;4992020;28;20393;-47
2023/12/13 12:08:25;;;;;;;;;;;;;;;;;;4998062;28;19965;-47
2023/12/13 12:10:52;;;;;;;;;;;;;;;;;;5000666;28;19925;-46
2023/12/13 12:13:18;;;;;;;;;;;;;;;;;;5010460;28;19914;-46
2023/12/13 12:15:44;;;;;;;;;;;;;;;;;;4999636;28;19913;-47
2023/12/13 12:18:10;;;;;;;;;;;;;;;;;;4998804;28;19914;-46
2023/12/13 12:20:36;;;;;;;;;;;;;;;;;;4991810;28;19917;-46
2023/12/13 12:23:02;;;;;;;;;;;;;;;;;;4993713;28;19913;-48
2023/12/13 12:25:28;;;;;;;;;;;;;;;;;;4974829;28;19914;-45
2023/12/13 12:27:55;;;;;;;;;;;;;;;;;;4993469;28;19924;-46
2023/12/13 12:30:25;;;;;;;;;;;;;;;;;;4994038;28;19925;-48
2023/12/13 12:32:51;;;;;;;;;;;;;;;;;;5010292;28;20271;-47
2023/12/13 12:35:17;;;;;;;;;;;;;;;;;;5010740;28;20366;-48
2023/12/13 12:37:44;;;;;;;;;;;;;;;;;;4995894;28;19953;-46
2023/12/13 12:40:10;;;;;;;;;;;;;;;;;;4993706;28;19921;-46
2023/12/13 12:42:36;;;;;;;;;;;;;;;;;;5011273;28;19917;-45
2023/12/13 12:45:02;;;;;;;;;;;;;;;;;;5011560;28;19913;-46
2023/12/13 12:47:29;;;;;;;;;;;;;;;;;;4992077;28;19917;-46
2023/12/13 12:49:55;;;;;;;;;;;;;;;;;;4992243;28;20389;-46
2023/12/13 12:52:21;;;;;;;;;;;;;;;;;;4993451;28;20063;-46
2023/12/13 12:54:47;;;;;;;;;;;;;;;;;;5009854;28;19940;-47
2023/12/13 12:57:13;;;;;;;;;;;;;;;;;;5004720;28;19918;-46
2023/12/13 12:59:39;;;;;;;;;;;;;;;;;;4974042;28;19924;-46
2023/12/13 13:02:05;;;;;;;;;;;;;;;;;;4992548;28;19953;-46
2023/12/13 13:04:31;;;;;;;;;;;;;;;;;;4991470;28;19957;-47
2023/12/13 13:06:57;;;;;;;;;;;;;;;;;;4992602;28;20007;-46
2023/12/13 13:09:24;;;;;;;;;;;;;;;;;;4992552;28;19917;-46
2023/12/13 13:11:51;;;;;;;;;;;;;;;;;;4991541;28;20330;-46
2023/12/13 13:14:17;;;;;;;;;;;;;;;;;;4990025;28;19964;-45
2023/12/13 13:16:43;;;;;;;;;;;;;;;;;;5003270;28;19918;-45
2023/12/13 13:19:09;;;;;;;;;;;;;;;;;;5009470;28;19917;-47
2023/12/13 13:21:35;;;;;;;;;;;;;;;;;;5010904;28;19960;-47
2023/12/13 13:24:01;;;;;;;;;;;;;;;;;;4992270;28;19910;-47
2023/12/13 13:26:27;;;;;;;;;;;;;;;;;;4991539;28;19913;-45
2023/12/13 13:28:54;;;;;;;;;;;;;;;;;;5005870;28;19934;-46
2023/12/13 13:31:21;;;;;;;;;;;;;;;;;;5000138;28;19921;-47
2023/12/13 13:33:47;;;;;;;;;;;;;;;;;;4991298;28;20012;-45
2023/12/13 13:36:13;;;;;;;;;;;;;;;;;;4991337;28;19925;-46
2023/12/13 13:38:39;;;;;;;;;;;;;;;;;;5006465;28;20000;-46
2023/12/13 13:41:06;;;;;;;;;;;;;;;;;;5001724;28;19922;-47
2023/12/13 13:43:32;;;;;;;;;;;;;;;;;;4991551;28;19949;-47
2023/12/13 13:45:58;;;;;;;;;;;;;;;;;;4994413;28;19922;-49
2023/12/13 13:48:25;;;;;;;;;;;;;;;;;;5006800;28;20356;-49
2023/12/13 13:50:51;;;;;;;;;;;;;;;;;;4999548;28;19928;-48
2023/12/13 13:53:18;;;;;;;;;;;;;;;;;;5007851;28;20346;-46
2023/12/13 13:55:47;;;;;;;;;;;;;;;;;;5015393;28;19967;-48
2023/12/13 13:58:14;;;;;;;;;;;;;;;;;;4993121;28;19914;-48
2023/12/13 14:00:40;;;;;;;;;;;;;;;;;;4996546;28;19917;-47
2023/12/13 14:03:06;;;;;;;;;;;;;;;;;;4997859;28;19968;-48
2023/12/13 14:05:35;;;;;;;;;;;;;;;;;;4999266;28;19914;-50
2023/12/13 14:08:01;;;;;;;;;;;;;;;;;;4990648;28;19918;-48
2023/12/13 14:10:27;;;;;;;;;;;;;;;;;;4998574;28;20271;-47
2023/12/13 14:12:53;;;;;;;;;;;;;;;;;;5000739;28;20385;-47
2023/12/13 14:15:19;;;;;;;;;;;;;;;;;;5018581;28;19913;-48
2023/12/13 14:17:45;;;;;;;;;;;;;;;;;;5018945;28;19949;-47
2023/12/13 14:20:12;;;;;;;;;;;;;;;;;;5013259;28;19946;-46
2023/12/13 14:22:39;;;;;;;;;;;;;;;;;;5018154;28;19968;-46
2023/12/13 14:25:05;;;;;;;;;;;;;;;;;;5017011;28;20371;-46
2023/12/13 14:27:31;;;;;;;;;;;;;;;;;;5018538;28;19971;-50
2023/12/13 14:29:57;;;;;;;;;;;;;;;;;;5022274;28;19913;-49
2023/12/13 14:32:23;;;;;;;;;;;;;;;;;;5023851;28;20282;-47
2023/12/13 14:34:49;;;;;;;;;;;;;;;;;;5024310;28;19959;-45
2023/12/13 14:37:15;;;;;;;;;;;;;;;;;;5023747;28;19972;-48
2023/12/13 14:39:42;;;;;;;;;;;;;;;;;;5018105;28;19963;-47
2023/12/13 14:42:08;;;;;;;;;;;;;;;;;;5016057;28;19921;-47
2023/12/13 14:44:34;;;;;;;;;;;;;;;;;;5018867;28;19924;-48
2023/12/13 14:47:00;;;;;;;;;;;;;;;;;;5019137;28;20464;-47
2023/12/13 14:49:26;;;;;;;;;;;;;;;;;;5024120;28;19975;-46
2023/12/13 14:51:55;;;;;;;;;;;;;;;;;;5026691;28;19952;-46
2023/12/13 14:54:21;;;;;;;;;;;;;;;;;;5031047;28;19960;-46
2023/12/13 14:56:47;;;;;;;;;;;;;;;;;;5013644;28;19918;-47
2023/12/13 14:59:13;;;;;;;;;;;;;;;;;;5009438;28;19922;-47
2023/12/13 15:01:41;;;;;;;;;;;;;;;;;;5004246;28;19910;-47
2023/12/13 15:04:07;;;;;;;;;;;;;;;;;;4994202;28;19914;-46
2023/12/13 15:06:35;;;;;;;;;;;;;;;;;;4996018;28;19918;-48
2023/12/13 15:09:01;;;;;;;;;;;;;;;;;;4994193;28;20293;-48
2023/12/13 15:11:27;;;;;;;;;;;;;;;;;;4995301;28;19913;-46
2023/12/13 15:13:54;;;;;;;;;;;;;;;;;;4995279;28;19996;-45
2023/12/13 15:16:20;;;;;;;;;;;;;;;;;;4995259;28;20358;-45
2023/12/13 15:18:46;;;;;;;;;;;;;;;;;;4995271;28;19914;-45
2023/12/13 15:21:12;;;;;;;;;;;;;;;;;;4995050;28;19957;-47
2023/12/13 15:23:38;;;;;;;;;;;;;;;;;;4995053;28;20283;-48
2023/12/13 15:26:04;;;;;;;;;;;;;;;;;;4995197;28;20378;-46
2023/12/13 15:28:35;;;;;;;;;;;;;;;;;;4995166;28;19922;-46
2023/12/13 15:31:01;;;;;;;;;;;;;;;;;;4994866;28;19943;-47
2023/12/13 15:33:29;;;;;;;;;;;;;;;;;;4994759;28;19913;-47
2023/12/13 15:35:55;;;;;;;;;;;;;;;;;;4994947;28;19914;-45
2023/12/13 15:38:21;;;;;;;;;;;;;;;;;;4995025;28;19957;-45
2023/12/13 15:40:47;;;;;;;;;;;;;;;;;;4994665;28;20366;-45
2023/12/13 15:43:13;;;;;;;;;;;;;;;;;;4994781;28;19916;-45
2023/12/13 15:45:41;;;;;;;;;;;;;;;;;;4994986;28;19920;-48
2023/12/13 15:48:07;;;;;;;;;;;;;;;;;;4994714;28;20029;-46
2023/12/13 15:50:33;;;;;;;;;;;;;;;;;;4994542;28;20412;-46
2023/12/13 15:53:00;;;;;;;;;;;;;;;;;;4994548;28;20013;-46
2023/12/13 15:55:26;;;;;;;;;;;;;;;;;;4998368;28;19920;-45
2023/12/13 15:57:52;;;;;;;;;;;;;;;;;;4999096;28;19910;-45
2023/12/13 16:00:21;;;;;;;;;;;;;;;;;;5033699;28;20397;-44
2023/12/13 16:02:47;;;;;;;;;;;;;;;;;;5033626;28;20417;-45
2023/12/13 16:05:13;;;;;;;;;;;;;;;;;;5033842;28;19913;-47
2023/12/13 16:07:41;;;;;;;;;;;;;;;;;;5033382;28;19963;-46
2023/12/13 16:10:07;;;;;;;;;;;;;;;;;;5031610;28;20382;-45
2023/12/13 16:12:33;;;;;;;;;;;;;;;;;;5032215;28;19916;-46
2023/12/13 16:15:01;;;;;;;;;;;;;;;;;;5033607;28;19920;-47
2023/12/13 16:17:28;;;;;;;;;;;;;;;;;;5032195;28;20382;-45
2023/12/13 16:19:54;;;;;;;;;;;;;;;;;;5033272;28;19917;-46
2023/12/13 16:22:20;;;;;;;;;;;;;;;;;;5033196;28;20380;-44
2023/12/13 16:24:46;;;;;;;;;;;;;;;;;;5033332;28;19913;-45
2023/12/13 16:27:13;;;;;;;;;;;;;;;;;;5032024;28;20023;-47
2023/12/13 16:29:39;;;;;;;;;;;;;;;;;;5033838;28;19919;-46
2023/12/13 16:32:07;;;;;;;;;;;;;;;;;;5031397;28;20232;-46
2023/12/13 16:34:34;;;;;;;;;;;;;;;;;;5033177;28;19933;-46
2023/12/13 16:37:00;;;;;;;;;;;;;;;;;;5033235;28;20390;-45
2023/12/13 16:39:26;;;;;;;;;;;;;;;;;;5031765;28;19939;-46